Date,TemperatureHighF,TemperatureAvgF,TemperatureLowF,DewpointHighF,DewpointAvgF,DewpointLowF,HumidityHigh,HumidityAvg,HumidityLow,PressureMaxIn,PressureMinIn,WindSpeedMaxMPH,WindSpeedAvgMPH,GustSpeedMaxMPH,PrecipitationSumIn
2012-8-21,80.0,70.8,57.9,57.4,53.8,49.7,75,54,37,30.10,30.04,3,0,5,0.00
2012-8-22,84.1,68.0,52.9,64.2,56.3,49.1,87,65,41,30.15,30.08,6,1,9,0.00
2012-8-23,89.6,71.3,55.8,63.8,56.8,49.9,83,60,32,30.16,30.09,7,1,12,0.00
2012-8-24,92.8,71.7,52.1,66.3,57.5,49.3,90,62,29,30.18,30.11,8,1,12,0.00
2012-8-25,92.2,77.8,59.5,65.8,59.5,54.8,89,54,25,30.21,30.13,7,2,12,0.00
2012-8-26,87.8,74.4,55.4,69.8,62.0,52.3,90,64,42,30.25,30.08,8,2,11,0.00
2012-8-27,78.8,72.2,67.3,70.8,66.0,61.4,91,79,63,30.08,29.91,8,3,14,0.54
2012-8-28,80.7,69.6,57.4,70.5,62.1,52.5,92,76,49,30.03,29.90,10,3,16,0.01
2012-8-29,78.1,63.8,48.4,59.5,51.0,43.3,91,65,29,30.10,30.03,8,1,12,0.00
2012-8-30,84.9,69.4,55.2,64.9,56.8,50.8,83,64,30,30.10,29.99,12,4,19,0.00
2012-8-31,90.8,77.4,65.0,69.7,62.9,54.3,82,59,42,30.00,29.87,16,6,23,0.00
2012-9-1,87.6,71.0,55.3,68.2,58.3,52.3,91,65,31,30.11,30.00,8,2,12,0.00
2012-9-2,88.3,68.0,50.4,65.9,56.4,47.9,91,67,32,30.08,30.02,9,2,13,0.00
2012-9-3,90.7,73.5,54.6,73.0,64.3,51.8,91,72,46,30.04,29.90,9,2,13,0.00
2012-9-4,82.9,72.6,67.1,77.2,68.9,64.5,91,86,74,29.94,29.78,13,1,22,1.57
2012-9-5,85.3,72.3,64.1,71.2,66.2,61.9,92,80,47,29.90,29.81,6,1,9,0.00
2012-9-6,86.4,73.9,59.2,73.9,66.0,56.3,88,75,44,29.90,29.79,8,2,12,0.00
2012-9-7,86.0,70.8,55.7,69.9,61.4,53.5,92,71,44,29.92,29.67,8,2,12,0.00
2012-9-8,73.0,65.6,54.5,66.1,60.4,51.7,91,81,62,29.78,29.39,16,3,27,1.76
2012-9-9,72.3,60.6,50.6,60.2,52.8,47.6,90,75,44,30.02,29.78,9,2,13,0.11
2012-9-10,73.5,57.8,44.8,58.6,48.0,42.4,92,70,37,30.18,30.02,8,2,14,0.00
2012-9-11,78.9,61.1,45.2,60.4,51.5,42.3,90,70,44,30.27,30.17,10,3,16,0.00
2012-9-12,82.9,67.5,56.8,61.9,54.9,49.1,84,63,39,30.29,30.21,9,2,13,0.00
2012-9-13,86.3,71.0,58.1,66.3,58.6,52.7,84,64,40,30.28,30.18,9,2,16,0.00
2012-9-14,84.1,65.0,51.1,70.3,59.1,48.1,91,79,57,30.21,30.08,10,2,16,0.37
2012-9-15,75.0,58.5,46.8,62.3,52.2,44.2,92,78,48,30.25,30.15,8,2,11,0.00
2012-9-16,76.9,61.1,43.2,61.2,53.0,40.9,92,73,48,30.17,30.03,10,2,14,0.00
2012-9-17,78.1,64.7,54.9,62.5,54.5,49.5,89,69,35,30.04,29.82,10,2,18,0.00
2012-9-18,71.8,62.1,48.4,67.4,57.6,44.7,89,83,73,29.83,29.46,10,4,17,0.31
2012-9-19,66.5,53.9,42.9,54.6,45.7,39.3,88,73,43,30.17,29.83,9,3,14,0.00
2012-9-20,73.0,59.5,42.0,56.5,46.3,38.2,88,61,36,30.15,29.89,11,3,19,0.00
2012-9-21,71.1,63.1,53.3,65.5,55.2,46.1,88,73,49,29.93,29.84,11,2,16,0.05
2012-9-22,63.7,56.7,49.8,56.2,52.1,45.1,91,83,61,29.95,29.62,10,3,14,0.80
2012-9-23,64.5,52.1,43.1,50.2,43.7,39.7,88,72,46,30.15,29.95,13,4,21,0.00
2012-9-24,64.6,52.4,40.1,49.0,42.4,37.4,90,68,38,30.18,29.95,15,5,23,0.00
2012-9-25,73.1,62.4,52.3,53.2,46.4,40.2,65,53,36,30.00,29.93,13,5,21,0.00
2012-9-26,71.8,61.3,50.4,63.6,56.1,45.7,88,81,64,30.16,29.91,9,3,15,0.10
2012-9-27,69.9,52.5,38.5,56.4,45.1,36.1,91,75,48,30.28,30.15,9,2,14,0.00
2012-9-28,65.3,51.6,39.4,54.3,45.4,37.0,92,78,53,30.19,30.07,10,1,15,0.00
2012-9-29,73.0,52.9,39.0,59.7,47.3,36.7,92,80,45,30.08,29.96,8,1,11,0.00
2012-9-30,69.2,55.8,49.6,61.7,50.9,47.4,92,82,64,29.98,29.86,8,2,12,0.08
2012-10-1,72.1,58.5,50.8,56.6,51.1,47.8,88,75,52,29.93,29.84,10,-1,19,0.00
2012-10-2,66.1,58.6,50.2,61.4,55.5,47.5,90,87,80,29.97,29.88,5,1,8,0.10
2012-10-3,73.9,65.2,59.8,67.0,61.6,57.1,91,86,73,30.12,29.94,9,1,13,0.00
2012-10-4,76.8,65.3,58.7,60.8,56.6,53.4,90,72,47,30.15,30.02,17,4,24,0.00
2012-10-5,71.2,62.7,53.2,62.9,55.7,48.8,88,75,61,30.02,29.88,15,5,24,0.08
2012-10-6,59.2,50.0,45.6,50.3,44.9,36.7,90,81,53,30.05,29.83,14,5,22,0.57
2012-10-7,54.7,46.4,39.8,47.1,41.5,37.1,90,81,65,30.14,30.04,8,1,13,0.05
2012-10-8,53.7,44.5,35.2,47.6,39.8,32.3,91,82,63,30.25,30.14,8,2,12,0.00
2012-10-9,62.2,47.1,34.1,46.1,39.2,31.5,91,73,47,30.24,29.97,8,2,12,0.00
2012-10-10,56.7,47.6,39.9,48.2,41.1,35.0,91,76,60,30.02,29.77,14,5,21,0.08
2012-10-11,55.9,48.5,36.8,44.2,36.7,31.5,82,61,43,30.20,30.01,15,7,27,0.00
2012-10-12,55.3,43.1,27.5,45.9,35.9,24.7,88,75,45,30.47,30.05,11,3,19,0.11
2012-10-13,55.5,41.8,26.2,47.0,32.2,23.1,90,69,29,30.47,29.95,8,2,12,0.13
2012-10-14,74.5,65.3,49.4,63.7,58.3,47.2,90,76,57,29.96,29.56,13,5,26,0.35
2012-10-15,71.0,57.2,45.7,58.4,48.2,38.6,78,69,56,29.83,29.46,23,10,38,0.00
2012-10-16,56.7,46.5,36.4,44.0,38.9,33.2,89,73,54,29.95,29.83,10,3,15,0.00
2012-10-17,70.0,53.4,36.4,54.1,43.6,33.4,90,69,42,29.93,29.77,6,2,11,0.01
2012-10-18,71.8,58.4,48.9,52.3,47.0,42.4,89,64,43,29.88,29.66,18,3,31,0.38
2012-10-19,70.8,53.4,40.1,58.1,48.4,37.7,92,82,47,29.86,29.62,8,2,11,0.08
2012-10-20,56.9,50.5,47.6,52.5,45.8,42.5,90,82,64,29.80,29.62,16,4,24,0.13
2012-10-21,64.8,52.8,45.5,50.5,45.9,42.6,88,76,51,30.10,29.80,14,5,21,0.00
2012-10-22,69.2,52.6,40.9,54.0,45.3,38.2,90,75,47,30.15,30.07,9,2,14,0.00
2012-10-23,54.2,52.5,49.2,51.3,49.9,45.6,91,89,79,30.10,30.03,7,2,12,0.49
2012-10-24,58.5,57.1,54.2,56.3,55.0,52.4,92,90,88,30.12,30.08,5,1,8,0.02
2012-10-25,82.6,64.9,50.9,61.7,55.9,48.9,92,73,37,30.10,29.95,12,2,15,0.00
2012-10-26,77.7,62.3,48.9,60.7,53.0,44.7,88,69,50,30.20,29.95,13,6,19,0.08
2012-10-27,49.3,47.9,44.5,47.4,45.8,42.4,91,91,88,30.18,30.01,10,4,16,0.73
2012-10-28,44.5,43.7,42.9,42.8,41.7,40.5,92,91,88,30.12,29.94,11,5,15,0.26
2012-10-29,48.1,44.8,43.7,46.2,43.1,41.8,92,92,90,29.94,29.22,24,10,39,0.71
2012-10-30,58.4,52.3,44.5,55.6,48.2,41.0,91,84,67,29.42,29.11,26,9,40,0.34
2012-10-31,49.6,44.8,42.0,44.1,40.6,38.6,91,83,68,29.46,29.40,10,2,13,0.06
2012-11-1,45.6,43.9,42.0,43.5,41.4,39.4,91,89,83,29.64,29.46,13,6,19,0.31
2012-11-2,44.3,40.9,38.8,39.9,36.5,33.6,90,82,72,29.93,29.64,11,5,20,0.00
2012-11-3,42.9,39.6,37.3,37.0,34.0,30.1,87,78,70,30.13,29.92,12,5,17,0.01
2012-11-4,39.1,36.6,35.2,35.7,31.4,28.7,89,79,73,30.15,30.11,9,3,12,0.01
2012-11-5,39.6,36.0,33.7,32.1,29.8,27.3,81,75,66,30.24,30.13,7,2,10,0.00
2012-11-6,44.4,35.1,29.4,34.1,27.1,24.4,85,70,54,30.23,30.10,9,2,13,0.00
2012-11-7,46.7,32.0,22.4,33.6,25.6,19.4,89,76,50,30.16,30.09,11,2,17,0.00
2012-11-8,50.2,31.2,19.2,36.4,24.0,16.5,90,74,44,30.20,30.13,8,2,13,0.00
2012-11-9,52.2,41.6,25.7,41.3,36.0,23.4,90,78,60,30.23,30.14,11,3,15,0.02
2012-11-10,53.8,46.4,37.3,45.7,41.9,34.5,91,82,68,30.31,30.16,9,2,15,0.00
2012-11-11,74.9,59.6,46.1,46.2,42.6,38.6,84,53,27,30.25,30.13,14,4,19,0.01
2012-11-12,74.0,60.1,40.8,53.4,45.5,37.6,88,58,39,30.20,29.86,19,9,29,0.33
2012-11-13,46.7,38.5,35.5,38.7,29.5,25.4,87,67,49,30.58,30.17,14,5,22,0.00
2012-11-14,44.5,36.4,28.0,34.8,29.5,25.1,89,74,55,30.65,30.51,6,1,9,0.01
2012-11-15,52.7,34.2,23.4,34.1,26.9,20.5,90,74,40,30.52,30.36,8,1,11,0.00
2012-11-16,53.3,35.3,23.3,40.7,30.3,20.4,91,81,54,30.54,30.38,7,1,10,0.00
2012-11-17,53.4,37.0,25.9,44.4,32.9,23.4,91,83,65,30.67,30.54,6,1,8,0.00
2012-11-18,54.5,38.4,27.7,39.1,32.4,25.4,91,78,45,30.66,30.51,7,2,10,0.01
2012-11-19,56.5,37.4,26.0,42.3,31.8,23.2,91,79,51,30.51,30.26,5,1,7,0.00
2012-11-20,54.4,39.7,28.3,43.4,34.6,25.7,91,81,53,30.26,30.14,6,1,9,0.00
2012-11-21,59.4,36.3,23.9,43.7,31.1,21.3,91,81,43,30.28,30.19,8,1,10,0.01
2012-11-22,62.0,45.8,28.1,44.1,35.9,25.4,90,67,45,30.23,29.95,12,3,16,0.00
2012-11-23,57.7,48.3,36.0,47.9,37.2,26.9,84,63,50,29.95,29.65,21,10,32,0.00
2012-11-24,45.6,35.9,32.8,29.5,25.3,20.9,75,63,47,29.97,29.74,20,9,33,0.00
2012-11-25,36.6,33.4,32.3,31.2,26.7,22.3,87,74,59,29.96,29.83,13,6,18,0.02
2012-11-26,41.8,35.6,29.4,32.9,27.5,21.4,79,70,60,30.26,29.90,13,6,20,0.01
2012-11-27,39.5,33.4,28.3,30.6,25.1,21.4,77,69,54,30.33,30.25,7,2,10,0.00
2012-11-28,43.0,34.5,29.8,30.8,26.5,22.9,85,70,53,30.28,30.17,15,5,24,0.00
2012-11-29,51.9,39.3,29.0,34.2,29.2,22.3,78,65,38,30.32,30.19,17,7,27,0.01
2012-11-30,37.1,31.0,29.3,31.6,26.1,22.5,88,80,73,30.45,30.32,12,6,21,0.00
2012-12-1,50.4,37.2,29.3,40.2,32.2,26.5,88,80,64,30.40,30.16,9,3,14,0.08
2012-12-2,53.7,52.1,47.3,50.7,46.4,39.9,89,79,63,30.17,29.90,14,8,23,0.33
2012-12-3,56.2,47.5,38.8,48.2,43.0,35.4,90,82,68,30.25,30.06,8,2,11,0.00
2012-12-4,67.8,58.2,45.8,55.7,52.4,42.2,91,79,62,30.06,29.90,16,8,25,0.21
2012-12-5,45.8,35.5,20.9,42.2,29.0,17.9,87,75,55,30.42,29.98,13,6,22,0.00
2012-12-6,39.7,30.5,19.5,27.7,23.9,16.3,89,75,55,30.44,30.05,8,2,14,0.00
2012-12-7,50.2,41.6,33.3,41.7,34.9,24.8,87,75,56,30.06,29.95,8,1,11,0.00
2012-12-8,46.0,41.6,35.3,44.4,39.4,31.6,92,90,84,30.20,29.79,10,2,15,0.16
2012-12-9,39.0,34.5,28.4,37.2,30.5,24.2,91,83,73,30.32,29.75,11,-3,17,0.38
2012-12-10,53.2,43.9,35.2,51.1,41.1,31.8,92,87,83,29.79,29.51,14,6,21,0.19
2012-12-11,36.3,31.0,23.9,32.0,27.2,21.1,90,84,74,30.20,29.78,8,2,14,0.01
2012-12-12,42.4,34.7,28.8,35.7,29.6,24.0,89,79,69,30.45,30.20,14,4,21,0.00
2012-12-13,46.9,35.7,29.6,33.3,27.1,24.6,88,69,45,30.46,30.21,11,4,18,0.00
2012-12-14,49.4,36.7,26.3,37.0,29.2,23.8,89,72,57,30.30,30.17,10,3,15,0.00
2012-12-15,42.1,34.1,23.1,36.2,30.2,20.6,91,84,74,30.32,29.97,10,3,15,0.01
2012-12-16,60.2,48.1,38.1,46.1,40.5,33.5,86,73,54,29.97,29.69,12,4,18,0.10
2012-12-17,50.4,46.9,43.6,45.3,42.8,40.2,90,83,73,29.76,29.57,10,3,15,0.15
2012-12-18,44.1,42.5,36.4,42.3,39.3,32.9,92,87,72,29.76,29.49,11,4,17,0.37
2012-12-19,48.2,37.0,31.0,38.6,32.3,28.7,91,81,64,30.22,29.76,8,2,13,0.00
2012-12-20,43.9,36.3,31.6,38.7,30.3,26.6,87,76,65,30.21,29.40,15,5,23,0.31
2012-12-21,44.7,37.4,30.9,40.5,34.6,28.1,91,88,78,29.43,29.23,16,6,28,0.37
2012-12-22,34.9,31.8,29.5,28.0,26.3,24.1,87,78,69,29.95,29.43,18,10,30,0.05
2012-12-23,40.8,33.4,29.8,30.3,27.2,22.7,84,75,62,30.04,29.82,15,7,24,0.04
2012-12-24,35.1,31.7,29.7,27.1,24.5,23.0,87,72,62,30.08,29.91,9,4,13,0.00
2012-12-25,38.2,31.6,29.0,31.8,27.8,25.4,90,84,72,30.37,29.94,10,2,14,0.04
2012-12-26,31.1,28.5,25.7,27.3,24.8,22.8,89,83,78,30.37,29.83,18,8,30,0.01
2012-12-27,28.2,26.1,24.9,25.4,23.5,21.9,89,88,86,30.10,29.77,16,7,23,0.00
2012-12-28,30.0,24.2,11.9,26.2,21.0,8.4,90,85,82,30.18,30.08,11,3,18,0.00
2012-12-29,31.7,26.5,14.6,29.2,24.0,11.9,90,88,84,30.07,29.73,10,3,14,0.00
2012-12-30,31.9,27.4,23.8,25.0,22.2,20.1,87,78,66,30.27,29.88,11,5,18,0.00
2012-12-31,36.7,33.0,28.3,30.8,27.7,23.1,85,78,71,30.21,29.87,22,9,34,0.00
2013-1-1,34.2,23.5,8.4,29.0,16.2,3.6,84,71,60,30.09,29.90,12,4,22,0.01